Time;durP1;ratioP1;P1;durP2;ratioP2;P2;SDS_P1;SDS_P2;PMS_P1;PMS_P2;Temp;Humidity;BMP_temperature;BMP_pressure;BME280_temperature;BME280_humidity;BME280_pressure;Samples;Min_cycle;Max_cycle;Signal;HPM_P1;HPM_P2
2023/08/28 03:03:08;;;;;;;0.73;0.60;;;23.90;59.70;;;;;;4842546;29;54263;-82
2023/08/28 03:05:33;;;;;;;1.42;0.70;;;23.90;59.80;;;;;;4842702;29;44996;-79
2023/08/28 03:07:59;;;;;;;1.73;0.73;;;23.90;59.70;;;;;;4837251;29;45187;-82
2023/08/28 03:10:24;;;;;;;0.73;0.52;;;23.90;59.70;;;;;;4858794;29;45244;-84
2023/08/28 03:12:50;;;;;;;0.50;0.50;;;23.90;59.70;;;;;;4843768;29;47366;-84
2023/08/28 03:15:16;;;;;;;0.45;0.45;;;23.90;59.70;;;;;;4841544;29;45173;-85
2023/08/28 03:17:41;;;;;;;1.05;0.50;;;23.90;59.70;;;;;;4848612;29;45066;-85
2023/08/28 03:20:09;;;;;;;2.70;0.52;;;23.90;59.70;;;;;;4851245;29;44739;-83
2023/08/28 03:22:35;;;;;;;0.80;0.65;;;23.90;59.70;;;;;;4824822;29;47262;-81
2023/08/28 03:25:00;;;;;;;2.15;0.50;;;23.90;59.70;;;;;;4850779;29;44981;-81
2023/08/28 03:27:26;;;;;;;0.75;0.55;;;23.90;59.70;;;;;;4844450;29;45142;-82
2023/08/28 03:29:51;;;;;;;1.48;0.40;;;23.90;59.70;;;;;;4827879;29;46408;-86
2023/08/28 03:32:17;;;;;;;0.93;0.52;;;23.90;59.70;;;;;;4851424;29;47385;-84
2023/08/28 03:34:42;;;;;;;2.05;0.65;;;23.90;59.70;;;;;;4836135;29;45031;-81
2023/08/28 03:37:08;;;;;;;0.82;0.60;;;23.90;59.70;;;;;;4819266;29;45298;-83
2023/08/28 03:39:33;;;;;;;0.60;0.60;;;23.90;59.60;;;;;;4822473;29;44771;-82
2023/08/28 03:41:59;;;;;;;0.50;0.47;;;23.90;59.60;;;;;;4841363;29;45153;-81
2023/08/28 03:44:24;;;;;;;0.65;0.50;;;23.90;59.70;;;;;;4850286;29;44820;-81
2023/08/28 03:46:50;;;;;;;0.55;0.55;;;23.90;59.60;;;;;;4844876;29;45030;-82
2023/08/28 03:49:15;;;;;;;0.50;0.50;;;23.90;59.60;;;;;;4849992;29;45931;-81
2023/08/28 03:51:41;;;;;;;0.95;0.60;;;23.90;59.70;;;;;;4828068;29;45660;-84
2023/08/28 03:54:12;;;;;;;0.52;0.45;;;23.90;59.60;;;;;;4829257;29;45185;-83
2023/08/28 03:56:37;;;;;;;1.10;0.82;;;23.90;59.60;;;;;;4825294;29;45307;-83
2023/08/28 03:59:03;;;;;;;0.95;0.60;;;23.90;59.60;;;;;;4840280;29;45361;-81
2023/08/28 04:01:28;;;;;;;1.10;0.60;;;23.90;59.60;;;;;;4824143;29;47750;-90
2023/08/28 04:03:54;;;;;;;1.00;0.63;;;23.90;59.70;;;;;;4848054;29;44962;-85
2023/08/28 04:06:21;;;;;;;0.60;0.50;;;23.90;59.60;;;;;;4828802;29;45287;-82
2023/08/28 04:08:47;;;;;;;0.73;0.57;;;23.90;59.60;;;;;;4839434;29;45157;-85
2023/08/28 04:11:12;;;;;;;0.60;0.60;;;23.90;59.60;;;;;;4805931;29;45652;-82
2023/08/28 04:13:38;;;;;;;0.57;0.50;;;23.80;59.60;;;;;;4852028;29;45141;-84
2023/08/28 04:16:05;;;;;;;0.50;0.50;;;23.90;59.60;;;;;;4853878;29;45236;-84
2023/08/28 04:18:31;;;;;;;1.52;1.00;;;23.90;59.60;;;;;;4823110;29;45229;-82
2023/08/28 04:20:56;;;;;;;0.88;0.60;;;23.80;59.50;;;;;;4824082;29;47355;-82
2023/08/28 04:23:22;;;;;;;1.75;0.73;;;23.80;59.50;;;;;;4822502;29;45308;-86
2023/08/28 04:25:48;;;;;;;0.77;0.50;;;23.90;59.60;;;;;;4836730;29;44959;-82
2023/08/28 04:28:15;;;;;;;0.90;0.70;;;23.90;59.60;;;;;;4827096;29;44838;-81
2023/08/28 04:30:42;;;;;;;0.50;0.50;;;23.80;59.50;;;;;;4836185;29;45063;-86
2023/08/28 04:33:07;;;;;;;0.82;0.40;;;23.80;59.60;;;;;;4841606;29;45057;-83
2023/08/28 04:35:33;;;;;;;0.50;0.50;;;23.80;59.50;;;;;;4821477;29;45253;-81
2023/08/28 04:37:58;;;;;;;0.77;0.55;;;23.90;59.60;;;;;;4829218;29;45448;-83
2023/08/28 04:40:24;;;;;;;1.17;0.55;;;23.80;59.50;;;;;;4805728;29;47545;-82
2023/08/28 04:42:49;;;;;;;0.55;0.55;;;23.80;59.50;;;;;;4828175;29;46077;-82
2023/08/28 04:45:15;;;;;;;1.85;0.60;;;23.80;59.60;;;;;;4839768;29;44850;-79
2023/08/28 04:47:40;;;;;;;0.80;0.70;;;23.80;59.50;;;;;;4852779;29;45046;-85
2023/08/28 04:50:07;;;;;;;1.08;0.63;;;23.90;59.60;;;;;;4839782;29;45044;-88
2023/08/28 04:52:32;;;;;;;0.65;0.60;;;23.80;59.50;;;;;;4840177;29;45098;-84
2023/08/28 04:54:58;;;;;;;0.60;0.60;;;23.80;59.50;;;;;;4827386;29;45770;-82
2023/08/28 04:57:23;;;;;;;2.35;0.60;;;23.80;59.50;;;;;;4811617;29;45565;-80
2023/08/28 04:59:49;;;;;;;0.45;0.40;;;23.80;59.50;;;;;;4822708;29;45909;-84
2023/08/28 05:02:14;;;;;;;1.38;0.70;;;23.80;59.50;;;;;;4847900;29;45105;-83
2023/08/28 05:04:40;;;;;;;1.48;0.70;;;23.80;59.50;;;;;;4858179;29;45328;-83
2023/08/28 05:07:07;;;;;;;0.95;0.65;;;23.80;59.50;;;;;;4853333;29;44845;-84
2023/08/28 05:09:33;;;;;;;1.98;0.70;;;23.80;59.50;;;;;;4870068;29;45109;-82
2023/08/28 05:11:58;;;;;;;0.75;0.75;;;23.80;59.50;;;;;;4808792;29;45440;-82
2023/08/28 05:14:24;;;;;;;1.38;0.68;;;23.80;59.50;;;;;;4877106;29;45349;-82
2023/08/28 05:16:49;;;;;;;0.70;0.60;;;23.80;59.50;;;;;;4868624;29;44940;-82
2023/08/28 05:19:15;;;;;;;0.63;0.57;;;23.80;59.50;;;;;;4841743;29;44972;-79
2023/08/28 05:21:41;;;;;;;0.63;0.50;;;23.80;60.10;;;;;;4853947;29;45211;-82
2023/08/28 05:24:06;;;;;;;0.93;0.65;;;23.80;59.50;;;;;;4867950;29;44837;-84
2023/08/28 05:26:32;;;;;;;0.50;0.50;;;23.80;59.50;;;;;;4851683;29;44904;-84
2023/08/28 05:28:57;;;;;;;1.00;0.63;;;23.80;59.50;;;;;;4845900;29;47078;-81
2023/08/28 05:31:23;;;;;;;0.60;0.50;;;23.80;59.50;;;;;;4854235;29;45193;-81
2023/08/28 05:33:48;;;;;;;0.85;0.75;;;23.80;59.50;;;;;;4861425;29;44999;-81
2023/08/28 05:36:14;;;;;;;0.82;0.70;;;23.80;59.50;;;;;;4816783;29;45239;-82
2023/08/28 05:38:40;;;;;;;0.50;0.50;;;23.80;59.50;;;;;;4842169;29;45383;-81
2023/08/28 05:41:05;;;;;;;0.63;0.50;;;23.80;59.50;;;;;;4828310;29;44931;-84
2023/08/28 05:43:31;;;;;;;0.70;0.65;;;23.80;59.50;;;;;;4871346;29;44964;-81
2023/08/28 05:45:56;;;;;;;1.00;0.70;;;23.80;59.50;;;;;;4841851;29;45128;-80
2023/08/28 05:48:22;;;;;;;2.70;0.57;;;23.80;59.50;;;;;;4832403;29;45315;-81
2023/08/28 05:50:50;;;;;;;0.90;0.60;;;23.80;59.50;;;;;;4843578;29;45249;-82
2023/08/28 05:53:16;;;;;;;2.25;0.63;;;23.80;59.40;;;;;;4874985;29;44836;-81
2023/08/28 05:55:42;;;;;;;0.95;0.70;;;23.80;59.50;;;;;;4857082;29;44991;-83
2023/08/28 05:58:07;;;;;;;0.50;0.50;;;23.80;59.50;;;;;;4845586;29;45332;-82
2023/08/28 06:00:33;;;;;;;0.82;0.70;;;23.80;59.40;;;;;;4820673;29;45153;-82
2023/08/28 06:02:58;;;;;;;1.88;0.50;;;23.80;59.40;;;;;;4861107;29;45224;-83
2023/08/28 06:05:24;;;;;;;0.82;0.60;;;23.80;59.50;;;;;;4859770;29;45405;-83
2023/08/28 06:07:49;;;;;;;0.88;0.57;;;23.80;59.50;;;;;;4868133;29;47349;-83
2023/08/28 06:10:19;;;;;;;0.50;0.50;;;23.80;59.50;;;;;;4842815;29;45158;-84
2023/08/28 06:12:48;;;;;;;0.50;0.50;;;23.80;59.50;;;;;;4860654;29;45110;-84
2023/08/28 06:15:17;;;;;;;0.85;0.52;;;23.80;59.40;;;;;;4859693;29;45585;-85
2023/08/28 06:17:46;;;;;;;1.97;0.50;;;23.80;59.50;;;;;;4874840;28;45774;-83
2023/08/28 06:20:12;;;;;;;0.77;0.70;;;23.70;59.40;;;;;;4842890;29;45183;-86
2023/08/28 06:22:38;;;;;;;0.52;0.52;;;23.80;59.40;;;;;;4878153;29;45193;-81
2023/08/28 06:25:04;;;;;;;0.68;0.63;;;23.80;59.40;;;;;;4844364;29;45189;-85
2023/08/28 06:27:30;;;;;;;0.60;0.60;;;23.80;59.40;;;;;;4857869;29;46833;-83
2023/08/28 06:29:56;;;;;;;1.30;0.70;;;23.80;59.40;;;;;;4876596;28;45319;-81
2023/08/28 06:32:21;;;;;;;0.93;0.77;;;23.80;59.40;;;;;;4865212;29;45643;-83
2023/08/28 06:34:47;;;;;;;0.70;0.70;;;23.70;59.40;;;;;;4853981;29;44960;-82
2023/08/28 06:37:12;;;;;;;1.20;0.80;;;23.80;59.40;;;;;;4852197;29;45431;-82
2023/08/28 06:39:38;;;;;;;1.00;0.93;;;23.80;59.40;;;;;;4875466;29;45403;-83
2023/08/28 06:42:04;;;;;;;1.35;0.90;;;23.80;59.40;;;;;;4838560;29;45093;-82
2023/08/28 06:44:29;;;;;;;1.38;1.00;;;23.80;59.40;;;;;;4863399;29;44835;-84
2023/08/28 06:46:55;;;;;;;1.30;0.80;;;23.80;59.40;;;;;;4841311;29;45398;-81
2023/08/28 06:49:21;;;;;;;0.68;0.65;;;23.80;59.40;;;;;;4828378;29;45108;-84
2023/08/28 06:51:46;;;;;;;1.55;0.88;;;23.70;59.40;;;;;;4840696;29;45876;-82
2023/08/28 06:54:12;;;;;;;1.73;1.08;;;23.70;59.40;;;;;;4843471;29;45044;-83
2023/08/28 06:56:37;;;;;;;1.02;0.70;;;23.70;59.40;;;;;;4871723;28;45304;-80
2023/08/28 06:59:03;;;;;;;2.17;0.70;;;23.70;59.40;;;;;;4870058;28;45095;-82
2023/08/28 07:01:28;;;;;;;1.10;0.80;;;23.70;59.40;;;;;;4821442;29;45549;-87
2023/08/28 07:03:54;;;;;;;0.95;0.77;;;23.70;59.40;;;;;;4839575;29;45174;-84
2023/08/28 07:06:19;;;;;;;1.58;0.68;;;23.80;59.40;;;;;;4839357;29;46461;-82
2023/08/28 07:08:45;;;;;;;1.05;0.80;;;23.70;59.40;;;;;;4863312;29;44803;-81
2023/08/28 07:11:11;;;;;;;1.38;0.75;;;23.70;59.40;;;;;;4819712;29;45078;-82
2023/08/28 07:13:37;;;;;;;0.95;0.70;;;23.70;59.40;;;;;;4860477;29;45136;-81
2023/08/28 07:16:02;;;;;;;0.77;0.75;;;23.70;59.30;;;;;;4868062;29;45754;-84
2023/08/28 07:18:28;;;;;;;0.80;0.73;;;23.70;59.30;;;;;;4845774;29;44738;-86
2023/08/28 07:20:54;;;;;;;1.13;0.95;;;23.70;59.30;;;;;;4847166;29;44945;-85
2023/08/28 07:23:20;;;;;;;0.63;0.63;;;23.70;59.40;;;;;;4876418;28;45057;-83
2023/08/28 07:25:46;;;;;;;1.52;0.77;;;23.70;59.30;;;;;;4847695;29;47048;-84
2023/08/28 07:28:11;;;;;;;1.00;0.77;;;23.70;59.30;;;;;;4859035;29;45142;-84
2023/08/28 07:30:37;;;;;;;0.73;0.70;;;23.70;59.30;;;;;;4861980;29;45204;-83
2023/08/28 07:33:03;;;;;;;0.60;0.60;;;23.70;59.30;;;;;;4872151;29;45399;-85
2023/08/28 07:35:34;;;;;;;0.80;0.75;;;23.70;59.40;;;;;;4871806;28;45276;-84
2023/08/28 07:38:02;;;;;;;1.02;0.60;;;23.70;59.30;;;;;;4832963;29;45077;-83
2023/08/28 07:40:28;;;;;;;0.80;0.80;;;23.70;59.30;;;;;;4829487;29;44859;-84
2023/08/28 07:42:53;;;;;;;1.38;0.70;;;23.70;59.40;;;;;;4855465;29;45026;-84
2023/08/28 07:45:19;;;;;;;0.88;0.70;;;23.70;59.30;;;;;;4844219;29;48011;-88
2023/08/28 07:47:45;;;;;;;1.20;0.77;;;23.70;59.30;;;;;;4837993;29;45093;-84
2023/08/28 07:50:11;;;;;;;0.77;0.77;;;23.70;59.30;;;;;;4872842;28;45081;-83
2023/08/28 07:52:36;;;;;;;0.98;0.68;;;23.70;59.30;;;;;;4876331;29;45184;-82
2023/08/28 07:55:09;;;;;;;1.75;1.00;;;23.70;59.30;;;;;;4859802;29;46936;-89
2023/08/28 07:57:34;;;;;;;0.60;0.60;;;23.70;59.30;;;;;;4858423;29;45234;-83
2023/08/28 08:00:05;;;;;;;0.88;0.70;;;23.70;59.30;;;;;;4862913;29;45202;-81
2023/08/28 08:02:31;;;;;;;0.85;0.65;;;23.70;59.30;;;;;;4856292;29;44833;-83
2023/08/28 08:04:57;;;;;;;0.52;0.52;;;23.70;59.30;;;;;;4823872;29;46880;-81
2023/08/28 08:07:22;;;;;;;0.80;0.65;;;23.70;59.30;;;;;;4863012;29;45191;-82
2023/08/28 08:09:48;;;;;;;1.52;1.00;;;23.70;59.30;;;;;;4872065;29;45312;-80
2023/08/28 08:12:13;;;;;;;0.82;0.82;;;23.60;59.20;;;;;;4867258;28;45041;-82
2023/08/28 08:14:39;;;;;;;0.70;0.70;;;23.70;59.30;;;;;;4863206;29;45425;-82
2023/08/28 08:17:04;;;;;;;0.90;0.70;;;23.60;59.20;;;;;;4873243;28;46033;-84
2023/08/28 08:19:30;;;;;;;1.17;0.80;;;23.70;59.30;;;;;;4859253;29;45038;-83
2023/08/28 08:21:56;;;;;;;0.85;0.85;;;23.70;59.30;;;;;;4845214;29;45634;-82
2023/08/28 08:24:22;;;;;;;1.08;0.93;;;23.70;59.30;;;;;;4845084;29;46787;-83
2023/08/28 08:26:49;;;;;;;1.00;0.80;;;23.70;59.30;;;;;;4825489;29;45142;-84
2023/08/28 08:29:15;;;;;;;1.77;0.90;;;23.60;59.20;;;;;;4874463;29;45168;-84
2023/08/28 08:31:40;;;;;;;0.85;0.70;;;23.70;59.30;;;;;;4856855;29;45309;-84
2023/08/28 08:34:06;;;;;;;0.90;0.82;;;23.70;59.90;;;;;;4870348;28;46919;-83
2023/08/28 08:36:31;;;;;;;1.30;1.02;;;23.70;59.30;;;;;;4824714;29;45039;-83
2023/08/28 08:38:57;;;;;;;0.60;0.60;;;23.70;59.30;;;;;;4844204;29;45399;-80
2023/08/28 08:41:22;;;;;;;0.88;0.85;;;23.60;59.20;;;;;;4844149;29;47258;-84
2023/08/28 08:43:48;;;;;;;0.80;0.80;;;23.60;59.40;;;;;;4857440;29;46762;-83
2023/08/28 08:46:14;;;;;;;1.08;0.70;;;23.60;59.20;;;;;;4854554;29;45623;-83
2023/08/28 08:48:40;;;;;;;0.55;0.55;;;23.60;59.20;;;;;;4858377;29;45030;-82
2023/08/28 08:51:06;;;;;;;0.60;0.60;;;23.60;59.20;;;;;;4856345;29;44654;-84
2023/08/28 08:54:09;;;;;;;1.02;0.68;;;23.60;59.20;;;;;;4871265;28;46313;-82
2023/08/28 08:56:34;;;;;;;0.88;0.80;;;23.60;59.10;;;;;;4853569;29;44981;-82
2023/08/28 08:59:00;;;;;;;0.68;0.68;;;23.60;59.20;;;;;;4845768;29;45240;-82
2023/08/28 09:01:26;;;;;;;1.00;0.60;;;23.60;59.20;;;;;;4849801;29;44948;-84
2023/08/28 09:03:51;;;;;;;0.82;0.80;;;23.60;59.20;;;;;;4851882;29;46609;-82
2023/08/28 09:06:17;;;;;;;0.82;0.80;;;23.60;59.20;;;;;;4831496;29;45877;-83
2023/08/28 09:08:43;;;;;;;0.77;0.60;;;23.60;59.20;;;;;;4853125;29;45904;-82
2023/08/28 09:11:08;;;;;;;0.80;0.70;;;23.60;59.20;;;;;;4849663;29;45174;-84
2023/08/28 09:13:43;;;;;;;1.33;0.70;;;23.60;59.20;;;;;;4836454;29;47479;-83
2023/08/28 09:16:09;;;;;;;0.70;0.60;;;23.60;59.10;;;;;;4815497;29;45320;-85
2023/08/28 09:18:35;;;;;;;0.50;0.50;;;23.60;59.20;;;;;;4833823;29;45745;-81
2023/08/28 09:21:07;;;;;;;1.00;0.80;;;23.60;59.20;;;;;;4832849;29;45706;-83
2023/08/28 09:23:33;;;;;;;0.70;0.70;;;23.60;59.10;;;;;;4836995;29;46071;-82
2023/08/28 09:25:59;;;;;;;0.77;0.70;;;23.60;59.20;;;;;;4849398;29;45173;-86
2023/08/28 09:28:26;;;;;;;0.77;0.70;;;23.60;59.20;;;;;;4830425;29;44981;-85
2023/08/28 09:30:51;;;;;;;1.83;0.80;;;23.60;59.20;;;;;;4833371;29;45535;-83
2023/08/28 09:33:17;;;;;;;0.90;0.80;;;23.60;59.20;;;;;;4853576;29;45453;-86
2023/08/28 09:35:43;;;;;;;1.20;0.80;;;23.60;59.20;;;;;;4845472;29;44934;-85
2023/08/28 09:38:09;;;;;;;0.88;0.60;;;23.60;59.20;;;;;;4866479;29;45606;-84
2023/08/28 09:40:41;;;;;;;0.73;0.70;;;23.60;59.20;;;;;;4849495;29;46027;-84
2023/08/28 09:43:12;;;;;;;0.63;0.63;;;23.60;59.20;;;;;;4866823;28;45443;-82
2023/08/28 09:45:37;;;;;;;0.65;0.65;;;23.60;59.20;;;;;;4859543;28;45113;-85
2023/08/28 09:48:04;;;;;;;1.10;0.70;;;23.60;59.20;;;;;;4866705;29;45387;-83
2023/08/28 09:50:30;;;;;;;1.02;0.90;;;23.60;59.20;;;;;;4860755;28;45727;-85
2023/08/28 09:53:05;;;;;;;0.70;0.70;;;23.60;59.20;;;;;;4868773;29;46338;-84
2023/08/28 09:55:31;;;;;;;1.38;0.70;;;23.60;59.10;;;;;;4841015;29;45714;-84
2023/08/28 09:57:56;;;;;;;1.60;0.75;;;23.60;59.20;;;;;;4832233;29;44886;-83
2023/08/28 10:00:22;;;;;;;0.77;0.73;;;23.60;59.20;;;;;;4850228;29;45440;-85
2023/08/28 10:02:48;;;;;;;0.80;0.70;;;23.60;59.20;;;;;;4861267;28;46077;-81
2023/08/28 10:05:13;;;;;;;0.88;0.80;;;23.60;59.20;;;;;;4838167;29;45233;-87
2023/08/28 10:07:39;;;;;;;0.60;0.50;;;23.60;59.20;;;;;;4867898;29;45993;-83
2023/08/28 10:10:06;;;;;;;1.02;0.68;;;23.60;59.20;;;;;;4849915;29;44907;-89
2023/08/28 10:12:32;;;;;;;0.65;0.60;;;23.60;59.20;;;;;;4862863;28;45126;-83
2023/08/28 10:14:57;;;;;;;0.70;0.70;;;23.60;59.20;;;;;;4813782;29;44788;-85
2023/08/28 10:17:23;;;;;;;0.65;0.60;;;23.60;59.20;;;;;;4816045;29;45266;-80
2023/08/28 10:19:56;;;;;;;1.05;0.70;;;23.60;59.20;;;;;;4859762;29;46287;-82
2023/08/28 10:22:21;;;;;;;0.70;0.60;;;23.50;59.10;;;;;;4845771;29;46178;-88
2023/08/28 10:24:47;;;;;;;0.95;0.80;;;23.50;59.10;;;;;;4823238;29;45536;-82
2023/08/28 10:27:14;;;;;;;0.82;0.70;;;23.60;59.20;;;;;;4827878;29;45658;-83
2023/08/28 10:29:40;;;;;;;1.05;0.73;;;23.60;59.20;;;;;;4825922;29;45833;-85
2023/08/28 10:32:09;;;;;;;0.63;0.63;;;23.60;59.20;;;;;;4853982;28;45972;-82
2023/08/28 10:34:45;;;;;;;1.02;0.80;;;23.60;59.10;;;;;;4864091;28;45313;-85
2023/08/28 10:37:11;;;;;;;0.73;0.68;;;23.50;59.10;;;;;;4829738;29;45174;-85
2023/08/28 10:39:41;;;;;;;0.80;0.80;;;23.60;59.20;;;;;;4859641;28;45186;-82
2023/08/28 10:42:07;;;;;;;0.88;0.68;;;23.50;59.10;;;;;;4830035;29;47120;-84
2023/08/28 10:44:33;;;;;;;0.85;0.52;;;23.50;59.10;;;;;;4861705;28;45199;-84
2023/08/28 10:46:59;;;;;;;0.77;0.70;;;23.50;59.20;;;;;;4852050;29;45416;-83
2023/08/28 10:49:24;;;;;;;0.63;0.60;;;23.50;59.10;;;;;;4840891;29;45582;-83
2023/08/28 10:51:59;;;;;;;0.70;0.70;;;23.50;59.10;;;;;;4818799;29;47058;-88
2023/08/28 10:54:36;;;;;;;0.63;0.63;;;23.50;59.10;;;;;;4823488;29;45195;-86
2023/08/28 10:57:05;;;;;;;1.58;0.80;;;23.50;59.10;;;;;;4819711;29;45866;-83
2023/08/28 10:59:43;;;;;;;0.60;0.60;;;23.50;59.10;;;;;;4866443;29;45405;-82
2023/08/28 11:02:09;;;;;;;0.90;0.50;;;23.50;59.10;;;;;;4847172;29;47242;-84
2023/08/28 11:04:36;;;;;;;1.02;0.60;;;23.50;59.20;;;;;;4852879;29;44918;-84
2023/08/28 11:07:02;;;;;;;0.80;0.77;;;23.50;59.10;;;;;;4853658;29;46088;-85
2023/08/28 11:09:28;;;;;;;0.98;0.60;;;23.50;59.10;;;;;;4868821;29;45307;-84
2023/08/28 11:12:00;;;;;;;0.90;0.70;;;23.50;59.10;;;;;;4848915;29;47870;-82
2023/08/28 11:14:38;;;;;;;0.60;0.60;;;23.60;59.10;;;;;;4869125;29;46178;-82
2023/08/28 11:17:05;;;;;;;0.60;0.60;;;23.50;59.20;;;;;;4827984;29;45156;-81
2023/08/28 11:19:30;;;;;;;0.90;0.60;;;23.50;59.20;;;;;;4867773;29;45147;-83
2023/08/28 11:21:59;;;;;;;0.88;0.73;;;23.50;59.20;;;;;;4830742;29;47458;-81
2023/08/28 11:24:25;;;;;;;2.05;0.80;;;23.60;59.20;;;;;;4866982;29;45092;-85
2023/08/28 11:26:50;;;;;;;0.90;0.60;;;23.50;59.10;;;;;;4839615;29;45380;-82
2023/08/28 11:29:26;;;;;;;0.80;0.80;;;23.50;59.20;;;;;;4867922;29;45792;-83
2023/08/28 11:31:51;;;;;;;0.63;0.60;;;23.50;59.10;;;;;;4827450;29;46969;-81
2023/08/28 11:34:17;;;;;;;0.98;0.70;;;23.50;59.20;;;;;;4862399;28;45111;-82
2023/08/28 11:36:43;;;;;;;0.80;0.70;;;23.50;59.20;;;;;;4807090;29;45737;-82
2023/08/28 11:39:23;;;;;;;0.88;0.70;;;23.50;59.20;;;;;;4852476;29;45508;-80
2023/08/28 11:41:50;;;;;;;1.60;0.80;;;23.50;59.10;;;;;;4829314;29;47338;-82
2023/08/28 11:44:15;;;;;;;0.75;0.63;;;23.50;59.20;;;;;;4854016;29;45077;-80
2023/08/28 11:46:42;;;;;;;1.35;0.80;;;23.50;59.20;;;;;;4863248;28;44924;-82
2023/08/28 11:49:07;;;;;;;0.60;0.60;;;23.50;59.20;;;;;;4864097;29;44827;-81
2023/08/28 11:51:33;;;;;;;0.82;0.63;;;23.50;59.20;;;;;;4823101;29;45621;-82
2023/08/28 11:53:58;;;;;;;0.82;0.40;;;23.50;59.20;;;;;;4861861;28;45320;-80
2023/08/28 11:56:24;;;;;;;0.60;0.60;;;23.50;59.20;;;;;;4846664;29;45189;-83
2023/08/28 11:58:50;;;;;;;0.52;0.52;;;23.50;59.20;;;;;;4823247;29;45525;-79
2023/08/28 12:01:15;;;;;;;1.08;0.80;;;23.50;59.20;;;;;;4845708;29;45472;-82
2023/08/28 12:03:42;;;;;;;0.52;0.40;;;23.50;59.20;;;;;;4850213;29;45227;-81
2023/08/28 12:06:08;;;;;;;0.70;0.70;;;23.50;59.20;;;;;;4851792;29;45481;-84
2023/08/28 12:08:38;;;;;;;1.08;0.80;;;23.50;59.20;;;;;;4839972;29;45334;-82
2023/08/28 12:11:08;;;;;;;1.20;0.73;;;23.50;59.20;;;;;;4865798;29;46203;-81
2023/08/28 12:13:34;;;;;;;0.65;0.65;;;23.50;59.10;;;;;;4853153;29;45292;-82
2023/08/28 12:16:08;;;;;;;0.70;0.60;;;23.50;59.20;;;;;;4826298;29;45641;-84
2023/08/28 12:18:47;;;;;;;0.90;0.70;;;23.50;59.10;;;;;;4848993;29;45085;-82
2023/08/28 12:21:15;;;;;;;1.45;0.70;;;23.50;59.10;;;;;;4838304;29;46987;-82
2023/08/28 12:23:47;;;;;;;0.93;0.68;;;23.50;59.20;;;;;;4829625;29;44922;-85
2023/08/28 12:26:13;;;;;;;0.57;0.57;;;23.50;59.10;;;;;;4852167;29;44643;-84
2023/08/28 12:28:38;;;;;;;0.82;0.57;;;23.50;59.30;;;;;;4834152;29;45483;-82
2023/08/28 12:31:04;;;;;;;0.68;0.60;;;23.50;59.20;;;;;;4846955;29;47167;-83
2023/08/28 12:33:35;;;;;;;0.47;0.47;;;23.50;59.20;;;;;;4849012;29;45047;-83
2023/08/28 12:36:01;;;;;;;0.75;0.60;;;23.50;59.20;;;;;;4817110;29;45236;-81
2023/08/28 12:38:28;;;;;;;0.80;0.60;;;23.50;59.20;;;;;;4851672;29;45979;-81
2023/08/28 12:40:53;;;;;;;0.73;0.73;;;23.50;59.20;;;;;;4809260;29;47356;-81
2023/08/28 12:43:19;;;;;;;0.95;0.70;;;23.50;59.20;;;;;;4850581;29;45575;-82
2023/08/28 12:45:44;;;;;;;1.17;0.50;;;23.50;59.20;;;;;;4825348;29;44931;-82
2023/08/28 12:48:10;;;;;;;0.95;0.60;;;23.50;59.20;;;;;;4854632;29;45446;-82
2023/08/28 12:50:36;;;;;;;2.15;0.65;;;23.50;59.20;;;;;;4835502;29;46416;-81
2023/08/28 12:53:04;;;;;;;0.60;0.43;;;23.50;59.20;;;;;;4855296;29;45254;-83
2023/08/28 12:55:30;;;;;;;1.00;0.60;;;23.50;59.20;;;;;;4850004;29;45897;-82
2023/08/28 12:57:55;;;;;;;2.67;0.60;;;23.50;59.20;;;;;;4854232;29;45257;-81
2023/08/28 13:00:21;;;;;;;0.98;0.60;;;23.50;59.20;;;;;;4828203;29;47532;-82
2023/08/28 13:02:46;;;;;;;0.85;0.60;;;23.50;59.20;;;;;;4851826;29;44958;-81
2023/08/28 13:05:12;;;;;;;1.25;0.60;;;23.50;59.20;;;;;;4834922;29;45876;-87
2023/08/28 13:07:38;;;;;;;1.25;0.77;;;23.50;59.20;;;;;;4833134;29;45820;-80
2023/08/28 13:10:04;;;;;;;0.85;0.80;;;23.50;59.20;;;;;;4851070;29;45533;-87
2023/08/28 13:12:30;;;;;;;1.55;0.75;;;23.50;59.20;;;;;;4852659;29;45170;-79
2023/08/28 13:14:56;;;;;;;0.98;0.60;;;23.50;59.20;;;;;;4865120;29;45005;-83
2023/08/28 13:17:21;;;;;;;0.98;0.70;;;23.50;59.20;;;;;;4847925;29;45246;-81
2023/08/28 13:19:47;;;;;;;0.70;0.50;;;23.50;59.20;;;;;;4862833;29;46898;-81
2023/08/28 13:22:12;;;;;;;1.35;0.65;;;23.50;59.20;;;;;;4817479;29;45354;-84
2023/08/28 13:24:39;;;;;;;2.13;0.70;;;23.50;59.20;;;;;;4854281;29;45718;-80
2023/08/28 13:27:04;;;;;;;0.85;0.60;;;23.50;59.20;;;;;;4850987;29;45162;-84
2023/08/28 13:29:30;;;;;;;0.80;0.70;;;23.50;59.20;;;;;;4852894;29;47422;-82
2023/08/28 13:31:56;;;;;;;0.80;0.80;;;23.50;59.20;;;;;;4848034;29;45061;-81
2023/08/28 13:34:21;;;;;;;2.33;0.85;;;23.50;59.20;;;;;;4836785;29;45048;-83
2023/08/28 13:36:47;;;;;;;0.50;0.50;;;23.50;59.20;;;;;;4839934;29;45055;-81
2023/08/28 13:39:13;;;;;;;0.70;0.70;;;23.50;59.20;;;;;;4835665;29;47282;-81
2023/08/28 13:41:40;;;;;;;0.80;0.80;;;23.50;59.20;;;;;;4866406;29;45630;-83
2023/08/28 13:44:05;;;;;;;0.50;0.50;;;23.50;59.20;;;;;;4847319;29;45193;-84
2023/08/28 13:46:31;;;;;;;0.60;0.60;;;23.50;59.20;;;;;;4845520;29;45702;-81
2023/08/28 13:48:57;;;;;;;0.73;0.70;;;23.50;59.10;;;;;;4819859;29;47745;-83
2023/08/28 13:51:22;;;;;;;0.90;0.70;;;23.50;59.10;;;;;;4851024;29;45324;-85
2023/08/28 13:53:48;;;;;;;1.50;0.68;;;23.40;59.10;;;;;;4851784;29;45091;-81
2023/08/28 13:56:13;;;;;;;1.30;0.63;;;23.50;59.10;;;;;;4842514;29;45634;-83
2023/08/28 13:58:39;;;;;;;0.70;0.60;;;23.50;59.10;;;;;;4836434;29;46231;-80
2023/08/28 14:01:07;;;;;;;0.93;0.77;;;23.40;59.10;;;;;;4835959;29;45383;-81
2023/08/28 14:03:46;;;;;;;0.80;0.70;;;23.50;59.20;;;;;;4865860;29;45762;-81
2023/08/28 14:06:11;;;;;;;1.13;0.77;;;23.50;59.10;;;;;;4863973;29;44961;-79
2023/08/28 14:08:37;;;;;;;0.82;0.68;;;23.50;59.20;;;;;;4841854;29;45864;-81
2023/08/28 14:11:09;;;;;;;0.80;0.80;;;23.40;59.10;;;;;;4851165;29;45018;-82
2023/08/28 14:13:36;;;;;;;0.73;0.50;;;23.50;59.10;;;;;;4814569;29;45565;-83
2023/08/28 14:16:03;;;;;;;0.60;0.60;;;23.40;59.10;;;;;;4849972;29;44763;-80
2023/08/28 14:18:28;;;;;;;0.60;0.60;;;23.40;59.10;;;;;;4832630;29;45415;-81
2023/08/28 14:20:54;;;;;;;0.77;0.70;;;23.50;59.10;;;;;;4858606;28;45347;-82
2023/08/28 14:23:20;;;;;;;0.70;0.70;;;23.40;59.10;;;;;;4850561;29;44881;-82
2023/08/28 14:25:52;;;;;;;0.60;0.60;;;23.40;59.10;;;;;;4866792;29;44960;-80
2023/08/28 14:28:17;;;;;;;0.50;0.50;;;23.50;59.10;;;;;;4836607;29;46652;-81
2023/08/28 14:30:43;;;;;;;0.77;0.60;;;23.40;59.10;;;;;;4839402;29;45541;-81
2023/08/28 14:33:09;;;;;;;0.88;0.77;;;23.40;59.10;;;;;;4855419;29;45027;-83
2023/08/28 14:35:43;;;;;;;0.63;0.63;;;23.40;59.00;;;;;;4834823;29;45277;-81
2023/08/28 14:38:09;;;;;;;0.88;0.50;;;23.40;59.10;;;;;;4852969;29;46101;-82
2023/08/28 14:40:36;;;;;;;1.23;0.63;;;23.40;59.10;;;;;;4847473;29;45606;-82
2023/08/28 14:43:01;;;;;;;0.60;0.60;;;23.40;59.10;;;;;;4854370;29;45033;-80
2023/08/28 14:45:27;;;;;;;1.20;0.70;;;23.40;59.10;;;;;;4837355;29;45189;-88
2023/08/28 14:47:53;;;;;;;0.80;0.77;;;23.40;59.10;;;;;;4826816;29;45750;-84
2023/08/28 14:50:22;;;;;;;0.55;0.55;;;23.40;59.10;;;;;;4836134;29;45113;-82
2023/08/28 14:52:48;;;;;;;1.30;0.60;;;23.40;59.00;;;;;;4853420;29;45279;-80
2023/08/28 14:55:13;;;;;;;0.60;0.60;;;23.40;59.10;;;;;;4850711;29;45058;-85
2023/08/28 14:57:39;;;;;;;0.98;0.57;;;23.40;59.00;;;;;;4850494;29;47724;-82
2023/08/28 15:00:07;;;;;;;0.63;0.60;;;23.40;59.00;;;;;;4834244;29;44978;-84
2023/08/28 15:02:32;;;;;;;0.60;0.60;;;23.40;59.00;;;;;;4833725;29;45343;-82
2023/08/28 15:04:59;;;;;;;0.50;0.50;;;23.40;59.00;;;;;;4866039;29;45596;-82
2023/08/28 15:07:25;;;;;;;0.60;0.60;;;23.40;59.00;;;;;;4850864;29;45740;-82
2023/08/28 15:09:50;;;;;;;0.60;0.60;;;23.40;59.00;;;;;;4853649;29;44967;-85
2023/08/28 15:12:16;;;;;;;0.80;0.60;;;23.40;59.00;;;;;;4836546;29;44727;-81
2023/08/28 15:14:41;;;;;;;1.02;0.60;;;23.40;59.00;;;;;;4844663;29;46056;-82
2023/08/28 15:17:08;;;;;;;0.65;0.63;;;23.40;59.00;;;;;;4810435;29;45763;-83
2023/08/28 15:19:34;;;;;;;0.90;0.65;;;23.40;59.00;;;;;;4853639;29;45110;-83
2023/08/28 15:21:59;;;;;;;1.13;0.75;;;23.40;59.00;;;;;;4841445;29;45011;-83
2023/08/28 15:24:25;;;;;;;0.55;0.50;;;23.40;59.00;;;;;;4853563;29;45559;-82
2023/08/28 15:26:51;;;;;;;1.20;0.70;;;23.40;59.00;;;;;;4814541;29;47483;-87
2023/08/28 15:29:16;;;;;;;1.13;0.75;;;23.40;59.00;;;;;;4854285;29;45943;-81
2023/08/28 15:31:43;;;;;;;0.80;0.80;;;23.40;59.00;;;;;;4832677;29;45131;-81
2023/08/28 15:34:08;;;;;;;0.60;0.60;;;23.40;59.00;;;;;;4836295;29;45107;-80
2023/08/28 15:36:34;;;;;;;0.50;0.50;;;23.40;59.00;;;;;;4836034;29;47301;-83
2023/08/28 15:39:00;;;;;;;0.70;0.70;;;23.40;59.00;;;;;;4839220;29;45033;-81
2023/08/28 15:41:26;;;;;;;0.63;0.50;;;23.40;59.00;;;;;;4866243;29;46014;-82
2023/08/28 15:43:52;;;;;;;1.05;0.70;;;23.40;59.00;;;;;;4859688;29;45530;-80
2023/08/28 15:46:19;;;;;;;0.57;0.55;;;23.40;59.00;;;;;;4839088;29;46871;-80